createdAt,value
2018-09-02T00:02:11.904Z,52.90
2018-09-02T00:04:40.444Z,52.90
2018-09-02T00:07:09.093Z,53.70
2018-09-02T00:09:37.604Z,53.10
2018-09-02T00:12:06.130Z,53.20
2018-09-02T00:14:34.657Z,53.10
2018-09-02T00:17:03.176Z,53.10
2018-09-02T00:19:32.776Z,53.20
2018-09-02T00:22:01.464Z,53.50
2018-09-02T00:24:29.969Z,53.60
2018-09-02T00:26:58.544Z,53.80
2018-09-02T00:29:27.047Z,53.80
2018-09-02T00:31:55.568Z,54.00
2018-09-02T00:34:24.116Z,53.80
2018-09-02T00:36:52.661Z,54.10
2018-09-02T00:39:21.335Z,54.40
2018-09-02T00:41:50.013Z,54.50
2018-09-02T00:44:18.627Z,54.40
2018-09-02T00:46:47.217Z,54.50
2018-09-02T00:49:15.765Z,54.60
2018-09-02T00:51:45.376Z,54.70
2018-09-02T00:54:13.972Z,54.80
2018-09-02T00:56:42.647Z,54.80
2018-09-02T00:59:11.378Z,54.70
2018-09-02T01:01:39.996Z,54.80
2018-09-02T01:04:08.708Z,54.70
2018-09-02T01:06:37.312Z,54.70
2018-09-02T01:09:07.228Z,55.10
2018-09-02T01:11:35.871Z,55.00
2018-09-02T01:14:04.538Z,55.20
2018-09-02T01:16:33.111Z,55.00
2018-09-02T01:19:02.268Z,55.10
2018-09-02T01:21:30.824Z,55.10
2018-09-02T01:23:59.318Z,55.00
2018-09-02T01:26:28.099Z,55.00
2018-09-02T01:28:56.617Z,55.30
2018-09-02T01:31:26.134Z,55.00
2018-09-02T01:33:54.612Z,55.00
2018-09-02T01:36:23.320Z,55.10
2018-09-02T01:38:52.815Z,55.10
2018-09-02T01:41:21.500Z,55.00
2018-09-02T01:43:50.059Z,55.20
2018-09-02T01:46:18.680Z,55.20
2018-09-02T01:48:47.267Z,55.20
2018-09-02T01:51:15.925Z,55.10
2018-09-02T01:53:44.476Z,55.40
2018-09-02T01:56:13.001Z,55.30
2018-09-02T01:58:41.643Z,55.40
2018-09-02T02:01:10.144Z,55.60
2018-09-02T02:03:38.672Z,55.60
2018-09-02T02:06:07.364Z,55.60
2018-09-02T02:08:35.932Z,55.60
2018-09-02T02:11:04.424Z,55.50
2018-09-02T02:13:32.899Z,55.70
2018-09-02T02:16:01.493Z,55.70
2018-09-02T02:18:30.717Z,56.20
2018-09-02T02:20:59.223Z,56.30
2018-09-02T02:23:27.779Z,56.30
2018-09-02T02:25:56.332Z,56.70
2018-09-02T02:28:24.954Z,57.00
2018-09-02T02:30:53.510Z,57.20
2018-09-02T02:33:22.230Z,57.10
2018-09-02T02:35:50.803Z,57.10
2018-09-02T02:38:19.382Z,57.20
2018-09-02T02:40:47.919Z,57.20
2018-09-02T02:43:16.726Z,57.30
2018-09-02T02:45:45.477Z,57.40
2018-09-02T02:48:14.278Z,57.50
2018-09-02T02:50:43.052Z,57.50
2018-09-02T02:53:11.656Z,58.00
2018-09-02T02:55:41.275Z,57.80
2018-09-02T02:58:10.003Z,57.90
2018-09-02T03:00:38.619Z,57.70
2018-09-02T03:03:07.208Z,57.30
2018-09-02T03:05:36.215Z,57.70
2018-09-02T03:08:04.803Z,58.30
2018-09-02T03:10:33.409Z,57.20
2018-09-02T03:13:01.917Z,57.50
2018-09-02T03:15:30.435Z,57.30
2018-09-02T03:17:58.924Z,57.60
2018-09-02T03:20:27.458Z,57.80
2018-09-02T03:22:56.945Z,57.70
2018-09-02T03:25:26.456Z,58.00
2018-09-02T03:27:55.019Z,58.10
2018-09-02T03:30:24.535Z,58.20
2018-09-02T03:32:53.076Z,58.20
2018-09-02T03:35:22.147Z,58.60
2018-09-02T03:37:51.872Z,58.80
2018-09-02T03:40:20.469Z,58.60
2018-09-02T03:42:49.007Z,60.00
2018-09-02T03:45:17.525Z,59.60
2018-09-02T03:47:46.070Z,59.80
2018-09-02T03:50:15.575Z,60.30
2018-09-02T03:52:44.284Z,60.40
2018-09-02T03:55:13.950Z,60.50
2018-09-02T03:57:42.523Z,59.40
2018-09-02T04:00:11.121Z,60.50
2018-09-02T04:02:39.704Z,60.30
2018-09-02T04:05:08.264Z,60.70
2018-09-02T04:07:36.769Z,60.00
2018-09-02T04:10:05.379Z,60.80
2018-09-02T04:12:33.857Z,61.10
2018-09-02T04:15:02.408Z,60.70
2018-09-02T04:17:30.929Z,61.10
2018-09-02T04:19:59.531Z,61.40
2018-09-02T04:22:28.007Z,61.40
2018-09-02T04:24:56.561Z,61.00
2018-09-02T04:27:25.070Z,61.70
2018-09-02T04:29:53.617Z,60.90
2018-09-02T04:32:22.154Z,61.10
2018-09-02T04:34:50.680Z,61.30
2018-09-02T04:37:19.141Z,62.20
2018-09-02T04:39:48.670Z,61.90
2018-09-02T04:42:17.144Z,61.90
2018-09-02T04:44:45.752Z,62.10
2018-09-02T04:47:14.286Z,61.40
2018-09-02T04:49:42.816Z,61.90
2018-09-02T04:52:11.398Z,62.30
2018-09-02T04:54:39.933Z,62.40
2018-09-02T04:57:08.549Z,62.50
2018-09-02T04:59:37.181Z,62.80
2018-09-02T05:02:05.723Z,63.10
2018-09-02T05:04:35.237Z,62.80
2018-09-02T05:07:03.745Z,63.20
2018-09-02T05:09:32.243Z,62.90
2018-09-02T05:12:00.820Z,62.60
2018-09-02T05:14:29.409Z,63.00
2018-09-02T05:16:57.941Z,62.80
2018-09-02T05:19:26.489Z,62.70
2018-09-02T05:21:55.112Z,62.50
2018-09-02T05:24:23.691Z,62.60
2018-09-02T05:26:52.823Z,62.10
2018-09-02T05:29:21.962Z,62.50
2018-09-02T05:31:50.549Z,62.40
2018-09-02T05:34:19.052Z,62.00
2018-09-02T05:36:47.632Z,61.90
2018-09-02T05:39:16.152Z,61.40
2018-09-02T05:41:45.285Z,61.40
2018-09-02T05:44:14.797Z,61.30
2018-09-02T05:46:43.975Z,61.40
2018-09-02T05:49:12.552Z,61.60
2018-09-02T05:51:41.681Z,61.30
2018-09-02T05:54:10.227Z,60.50
2018-09-02T05:56:38.745Z,60.40
2018-09-02T05:59:07.484Z,60.70
2018-09-02T06:01:36.000Z,61.10
2018-09-02T06:04:05.529Z,61.30
2018-09-02T06:06:34.092Z,61.40
2018-09-02T06:09:02.824Z,61.20
2018-09-02T06:11:31.462Z,60.80
2018-09-02T06:14:00.042Z,60.50
2018-09-02T06:16:28.599Z,60.20
2018-09-02T06:18:57.288Z,60.40
2018-09-02T06:21:26.048Z,60.90
2018-09-02T06:23:56.454Z,60.80
2018-09-02T06:26:25.238Z,60.60
2018-09-02T06:28:54.958Z,60.30
2018-09-02T06:31:23.602Z,60.00
2018-09-02T06:33:52.297Z,59.40
2018-09-02T06:36:21.178Z,59.60
2018-09-02T06:38:49.751Z,59.70
2018-09-02T06:41:19.047Z,59.70
2018-09-02T06:43:47.744Z,59.90
2018-09-02T06:46:16.300Z,59.70
2018-09-02T06:48:44.892Z,59.30
2018-09-02T06:51:17.548Z,59.00
2018-09-02T06:53:47.879Z,58.80
2018-09-02T06:56:16.900Z,58.40
2018-09-02T08:00:38.767Z,55.10
2018-09-02T08:03:18.750Z,54.70
2018-09-02T08:05:47.502Z,52.70
2018-09-02T08:08:33.150Z,52.50
2018-09-02T08:11:01.874Z,52.60
2018-09-02T08:13:31.730Z,52.70
2018-09-02T08:16:00.448Z,52.30
2018-09-02T08:18:33.261Z,52.10
2018-09-02T08:21:31.296Z,52.10
2018-09-02T08:32:06.481Z,51.70
2018-09-02T08:52:53.074Z,50.40
2018-09-02T08:55:21.799Z,50.20
2018-09-02T08:57:56.697Z,49.10
2018-09-02T09:00:25.373Z,49.40
2018-09-02T09:02:54.646Z,48.80
2018-09-02T09:08:09.079Z,48.60
2018-09-02T09:10:37.558Z,48.40
2018-09-02T09:13:06.233Z,48.20
2018-09-02T09:15:38.029Z,48.00
2018-09-02T09:18:06.582Z,47.70
2018-09-02T09:20:35.185Z,47.50
2018-09-02T09:23:03.815Z,47.50
2018-09-02T09:25:33.139Z,47.30
2018-09-02T09:28:01.697Z,47.40
2018-09-02T09:30:35.617Z,47.10
2018-09-02T09:33:08.062Z,47.00
2018-09-02T09:35:36.962Z,46.70
2018-09-02T09:38:09.346Z,46.60
2018-09-02T09:40:42.203Z,46.30
2018-09-02T09:43:10.901Z,45.90
2018-09-02T09:45:44.012Z,45.80
2018-09-02T09:51:34.128Z,45.70
2018-09-02T09:54:02.766Z,45.80
2018-09-02T09:56:32.868Z,45.30
2018-09-02T09:59:02.286Z,45.10
2018-09-02T10:01:32.444Z,44.90
2018-09-02T10:04:01.448Z,44.70
2018-09-02T10:09:32.761Z,45.00
2018-09-02T10:12:03.759Z,44.50
2018-09-02T10:20:14.953Z,44.00
2018-09-02T10:22:44.079Z,43.90
2018-09-02T10:25:12.588Z,43.10
2018-09-02T10:27:41.462Z,42.70
2018-09-02T10:34:08.378Z,42.20
2018-09-02T10:36:41.995Z,42.00
2018-09-02T10:39:25.188Z,41.90
2018-09-02T10:42:27.362Z,41.80
2018-09-02T10:44:57.765Z,40.80
2018-09-02T10:47:41.733Z,40.60
2018-09-02T10:53:26.849Z,41.10
2018-09-02T10:56:03.995Z,41.20
2018-09-02T10:58:37.032Z,40.90
2018-09-02T11:03:57.400Z,40.80
2018-09-02T11:06:39.224Z,41.20
2018-09-02T11:09:25.283Z,41.40
2018-09-02T11:12:23.211Z,41.10
2018-09-02T11:15:02.816Z,40.90
2018-09-02T11:17:38.294Z,40.00
2018-09-02T11:20:08.280Z,40.00
2018-09-02T11:22:37.977Z,39.60
2018-09-02T11:25:06.899Z,39.10
2018-09-02T11:27:35.406Z,38.10
2018-09-02T11:30:04.032Z,37.70
2018-09-02T11:32:34.872Z,37.50
2018-09-02T11:35:03.637Z,37.20
2018-09-02T11:37:33.760Z,38.30
2018-09-02T11:40:04.082Z,38.40
2018-09-02T11:42:34.267Z,38.50
2018-09-02T11:45:02.961Z,38.90
2018-09-02T11:47:33.154Z,38.90
2018-09-02T11:50:20.022Z,38.80
2018-09-02T11:52:55.704Z,38.60
2018-09-02T11:55:25.598Z,38.80
2018-09-02T11:57:59.451Z,39.10
2018-09-02T12:00:34.936Z,39.50
2018-09-02T12:03:23.082Z,39.80
2018-09-02T12:05:51.949Z,39.70
2018-09-02T12:08:21.391Z,39.80
2018-09-02T12:10:50.168Z,39.50
2018-09-02T12:13:18.778Z,39.70
2018-09-02T12:15:47.378Z,39.50
2018-09-02T12:18:16.022Z,39.50
2018-09-02T12:20:45.898Z,38.90
2018-09-02T12:23:14.496Z,39.10
2018-09-02T12:25:52.300Z,38.60
2018-09-02T12:28:22.102Z,38.40
2018-09-02T12:30:50.756Z,38.40
2018-09-02T12:33:19.369Z,38.50
2018-09-02T12:35:47.955Z,38.50
2018-09-02T12:38:16.548Z,38.90
2018-09-02T12:40:45.876Z,38.30
2018-09-02T12:43:14.550Z,38.60
2018-09-02T12:45:47.608Z,38.30
2018-09-02T12:48:19.114Z,37.70
2018-09-02T12:50:56.691Z,37.70
2018-09-02T12:53:32.711Z,37.20
2018-09-02T12:56:03.100Z,37.70
2018-09-02T12:58:32.510Z,37.20
2018-09-02T13:07:16.945Z,37.90
2018-09-02T13:10:04.197Z,38.20
2018-09-02T13:12:43.276Z,37.00
2018-09-02T13:15:25.347Z,36.60
2018-09-02T13:18:00.952Z,35.00
2018-09-02T13:20:29.918Z,34.30
2018-09-02T13:23:27.241Z,33.70
2018-09-02T13:26:06.123Z,34.10
2018-09-02T13:29:02.985Z,33.50
2018-09-02T13:31:51.757Z,33.80
2018-09-02T13:34:24.822Z,34.60
2018-09-02T13:37:07.413Z,35.30
2018-09-02T13:39:40.462Z,35.80
2018-09-02T13:42:22.562Z,35.40
2018-09-02T13:44:57.953Z,35.60
2018-09-02T13:47:30.690Z,35.20
2018-09-02T13:50:02.510Z,35.50
2018-09-02T13:52:35.551Z,35.70
2018-09-02T14:00:51.047Z,35.50
2018-09-02T14:03:28.146Z,35.60
2018-09-02T14:06:10.658Z,35.60
2018-09-02T14:15:13.571Z,35.90
2018-09-02T14:17:52.671Z,36.30
2018-09-02T14:20:31.002Z,36.10
2018-09-02T14:23:15.920Z,36.30
2018-09-02T14:25:45.065Z,35.90
2018-09-02T14:28:16.218Z,36.00
2018-09-02T14:30:46.054Z,35.90
2018-09-02T14:33:17.647Z,35.40
2018-09-02T14:35:53.553Z,35.10
2018-09-02T14:38:25.977Z,35.30
2018-09-02T14:41:23.882Z,35.60
2018-09-02T14:43:52.694Z,34.70
2018-09-02T14:46:22.271Z,34.90
2018-09-02T14:48:50.911Z,34.40
2018-09-02T14:51:20.468Z,34.70
2018-09-02T14:53:49.138Z,34.30
2018-09-02T15:01:55.962Z,34.50
2018-09-02T15:04:30.519Z,34.60
2018-09-02T15:07:04.102Z,34.50
2018-09-02T15:12:43.598Z,34.70
2018-09-02T15:15:20.193Z,34.80
2018-09-02T15:17:55.038Z,34.90
2018-09-02T15:20:26.430Z,35.10
2018-09-02T15:22:55.568Z,34.80
2018-09-02T15:25:26.717Z,34.90
2018-09-02T15:27:55.397Z,35.20
2018-09-02T15:30:24.089Z,35.10
2018-09-02T15:32:52.702Z,35.20
2018-09-02T15:35:21.314Z,35.30
2018-09-02T15:37:49.965Z,35.40
2018-09-02T15:40:18.546Z,35.20
2018-09-02T15:42:47.207Z,35.20
2018-09-02T15:45:22.182Z,35.00
2018-09-02T15:47:50.823Z,34.90
2018-09-02T15:53:24.674Z,35.20
2018-09-02T15:57:10.210Z,35.40
2018-09-02T15:59:39.157Z,35.60
2018-09-02T16:02:11.918Z,36.30
2018-09-02T16:04:42.052Z,35.50
2018-09-02T16:07:10.840Z,35.50
2018-09-02T16:09:39.986Z,35.70
2018-09-02T16:12:08.963Z,35.30
2018-09-02T16:14:42.017Z,34.70
2018-09-02T16:17:16.025Z,34.90
2018-09-02T16:22:31.145Z,35.10
2018-09-02T16:25:00.179Z,35.10
2018-09-02T16:27:52.016Z,35.70
2018-09-02T16:30:40.335Z,35.80
2018-09-02T16:33:10.516Z,36.10
2018-09-02T16:35:40.138Z,36.30
2018-09-02T16:38:10.718Z,36.40
2018-09-02T16:40:39.443Z,36.60
2018-09-02T16:43:09.106Z,36.80
2018-09-02T16:45:38.496Z,36.50
2018-09-02T16:48:07.366Z,36.80
2018-09-02T16:50:37.335Z,36.90
2018-09-02T16:53:06.897Z,37.00
2018-09-02T16:55:43.033Z,37.10
2018-09-02T16:58:16.532Z,37.10
2018-09-02T17:00:45.336Z,37.20
2018-09-02T17:04:49.835Z,37.30
2018-09-02T17:15:54.389Z,37.30
2018-09-02T17:21:41.234Z,37.40
2018-09-02T17:24:23.977Z,37.70
2018-09-02T17:26:55.029Z,37.00
2018-09-02T17:29:26.892Z,37.10
2018-09-02T17:31:55.661Z,37.00
2018-09-02T17:34:24.330Z,36.80
2018-09-02T17:36:54.070Z,37.10
2018-09-02T17:39:25.046Z,37.00
2018-09-02T17:41:53.770Z,37.00
2018-09-02T17:44:24.606Z,37.40
2018-09-02T18:33:02.500Z,39.30
2018-09-02T19:25:36.738Z,40.60
2018-09-02T19:35:06.417Z,40.30
2018-09-02T19:37:48.378Z,40.30
2018-09-02T21:08:25.472Z,42.00
2018-09-02T21:10:53.998Z,42.20
2018-09-02T21:17:14.532Z,42.70
2018-09-02T21:19:46.707Z,42.60
2018-09-02T21:22:15.337Z,42.70
2018-09-02T21:24:44.147Z,42.90
2018-09-02T21:27:12.677Z,43.10
2018-09-02T21:29:42.328Z,43.50
2018-09-02T21:32:10.926Z,43.80
2018-09-02T21:34:39.531Z,44.00
2018-09-02T21:37:08.289Z,44.10
2018-09-02T21:39:36.822Z,44.30
2018-09-02T21:42:05.626Z,44.70
2018-09-02T21:44:34.701Z,44.80
2018-09-02T21:47:03.259Z,45.00
2018-09-02T21:49:31.924Z,45.60
2018-09-02T21:52:01.507Z,45.70
2018-09-02T21:54:30.137Z,46.10
2018-09-02T21:56:59.682Z,45.90
2018-09-02T21:59:28.188Z,46.20
2018-09-02T22:01:56.809Z,46.40
2018-09-02T22:04:25.372Z,46.50
2018-09-02T22:06:53.886Z,46.60
2018-09-02T22:09:22.555Z,46.80
2018-09-02T22:11:51.303Z,46.90
2018-09-02T22:14:19.928Z,47.10
2018-09-02T22:16:48.589Z,47.20
2018-09-02T22:19:17.197Z,47.10
2018-09-02T22:21:45.760Z,47.20
2018-09-02T22:24:14.721Z,47.00
2018-09-02T22:26:43.394Z,47.00
2018-09-02T22:29:12.022Z,47.20
2018-09-02T22:31:40.612Z,47.30
2018-09-02T22:34:09.200Z,47.40
2018-09-02T22:36:37.700Z,47.70
2018-09-02T22:39:07.637Z,47.80
2018-09-02T22:41:36.270Z,47.80
2018-09-02T22:44:04.888Z,48.10
2018-09-02T22:46:33.374Z,48.10
2018-09-02T22:49:02.105Z,48.00
2018-09-02T22:51:31.663Z,48.50
2018-09-02T22:54:00.203Z,48.80
2018-09-02T22:56:28.744Z,49.20
2018-09-02T22:58:57.342Z,48.80
2018-09-02T23:01:25.993Z,49.00
2018-09-02T23:03:54.525Z,49.00
2018-09-02T23:06:23.106Z,49.00
2018-09-02T23:08:51.668Z,48.80
2018-09-02T23:11:20.338Z,48.80
2018-09-02T23:13:48.842Z,48.90
2018-09-02T23:16:17.429Z,49.00
2018-09-02T23:18:45.945Z,48.80
2018-09-02T23:21:14.506Z,48.70
2018-09-02T23:23:43.060Z,48.70
2018-09-02T23:26:12.621Z,48.70
2018-09-02T23:28:41.236Z,48.80
2018-09-02T23:31:09.745Z,48.80
2018-09-02T23:33:38.271Z,49.00
2018-09-02T23:36:06.811Z,49.00
2018-09-02T23:38:36.346Z,49.10
2018-09-02T23:41:05.006Z,49.10
2018-09-02T23:43:33.667Z,49.10
2018-09-02T23:46:03.157Z,49.20
2018-09-02T23:48:31.679Z,49.10
2018-09-02T23:51:00.248Z,49.20
2018-09-02T23:53:28.826Z,49.20
2018-09-02T23:55:57.436Z,49.20
2018-09-02T23:58:25.947Z,49.20
